Terminal Aerodrome Forecast
Issued by NWS

Home | Current Version | Previous Version | Text Only | Print | Product List | Glossary On
Versions: 1 2 3 4 5 6 7 8 9 10 11 12 13
000
FTUS45 KPIH 290500
TAFSUN
TAF
KSUN 290520Z 2906/3006 31006KT P6SM SCT070 BKN110 BKN150
     FM291500 VRB05KT P6SM VCTS FEW050CB SCT110 BKN180
     FM291800 VRB05KT P6SM VCTS SCT070CB BKN200
     FM300000 VRB05KT P6SM VCTS BKN100CB BKN200
      AMD LTD TO CLD VIS AND WIND TIL 291300=

USA.gov is the U.S. government's official web portal to all federal, state and local government web resources and services.